Roskilde, Denmark
Current Conditions -  °F | °C
As of 2:50 PM on Wednesday 28 Jan 2015 (Local Time) from EKRK Reporting Station
Overcast Overcast  
Wind Chill: 30°   Ceiling: 1500
Heat Index: 39°   Visibility: 5mi
Dew Point: 36°   Wind: 17mph
Humidity: 87%   Direction: 200°SSW
Pressure: 29.32"   Gusts: NA
Location:  55.64°N, 12.08°E
Report Text: EKRK 281350Z AUTO 20015KT 8000NDV FEW012/// BKN015///OVC020/// 04/02 Q0993
Loading
Personal Weather Stations






























Interactive Weather Map New forecast layout! Learn more

10-Day Weather Forecast

Advertisements
Track Severe Weather on mobile